sensor_id;sensor_type;location;lat;lon;timestamp;temperature;humidity
6256;DHT22;3161;48.794;9.784;2023-05-20T00:02:16;13.90;99.90
6256;DHT22;3161;48.794;9.784;2023-05-20T00:04:44;13.90;99.90
6256;DHT22;3161;48.794;9.784;2023-05-20T00:07:11;13.90;99.90
6256;DHT22;3161;48.794;9.784;2023-05-20T00:09:39;13.80;99.90
6256;DHT22;3161;48.794;9.784;2023-05-20T00:12:07;13.80;99.90
6256;DHT22;3161;48.794;9.784;2023-05-20T00:14:34;13.80;99.90
6256;DHT22;3161;48.794;9.784;2023-05-20T00:17:02;13.80;99.90
6256;DHT22;3161;48.794;9.784;2023-05-20T00:19:29;13.80;99.90
6256;DHT22;3161;48.794;9.784;2023-05-20T00:21:57;13.80;99.90
6256;DHT22;3161;48.794;9.784;2023-05-20T00:24:25;13.80;99.90
6256;DHT22;3161;48.794;9.784;2023-05-20T00:26:53;13.80;99.90
6256;DHT22;3161;48.794;9.784;2023-05-20T00:29:21;13.80;99.90
6256;DHT22;3161;48.794;9.784;2023-05-20T00:31:48;13.70;99.90
6256;DHT22;3161;48.794;9.784;2023-05-20T00:34:16;13.70;99.90
6256;DHT22;3161;48.794;9.784;2023-05-20T00:36:43;13.70;99.90
6256;DHT22;3161;48.794;9.784;2023-05-20T00:39:11;13.70;99.90
6256;DHT22;3161;48.794;9.784;2023-05-20T00:41:39;13.70;99.90
6256;DHT22;3161;48.794;9.784;2023-05-20T00:44:07;13.70;99.90
6256;DHT22;3161;48.794;9.784;2023-05-20T00:46:35;13.60;99.90
6256;DHT22;3161;48.794;9.784;2023-05-20T00:49:03;13.60;99.90
6256;DHT22;3161;48.794;9.784;2023-05-20T00:51:31;13.60;99.90
6256;DHT22;3161;48.794;9.784;2023-05-20T00:54:00;13.60;99.90
6256;DHT22;3161;48.794;9.784;2023-05-20T00:56:28;13.60;99.90
6256;DHT22;3161;48.794;9.784;2023-05-20T00:58:57;13.60;99.90
6256;DHT22;3161;48.794;9.784;2023-05-20T01:01:24;13.60;99.90
6256;DHT22;3161;48.794;9.784;2023-05-20T01:03:52;13.60;99.90
6256;DHT22;3161;48.794;9.784;2023-05-20T01:06:19;13.70;99.90
6256;DHT22;3161;48.794;9.784;2023-05-20T01:08:47;13.70;99.90
6256;DHT22;3161;48.794;9.784;2023-05-20T01:11:21;13.70;99.90
6256;DHT22;3161;48.794;9.784;2023-05-20T01:13:52;13.70;99.90
6256;DHT22;3161;48.794;9.784;2023-05-20T01:16:19;13.70;99.90
6256;DHT22;3161;48.794;9.784;2023-05-20T01:18:49;13.70;99.90
6256;DHT22;3161;48.794;9.784;2023-05-20T01:21:18;13.80;99.90
6256;DHT22;3161;48.794;9.784;2023-05-20T01:23:46;13.80;99.90
6256;DHT22;3161;48.794;9.784;2023-05-20T01:26:13;13.80;99.90
6256;DHT22;3161;48.794;9.784;2023-05-20T01:28:42;13.80;99.90
6256;DHT22;3161;48.794;9.784;2023-05-20T01:31:16;13.80;99.90
6256;DHT22;3161;48.794;9.784;2023-05-20T01:33:43;13.80;99.90
6256;DHT22;3161;48.794;9.784;2023-05-20T01:36:11;13.80;99.90
6256;DHT22;3161;48.794;9.784;2023-05-20T01:38:40;13.80;99.90
6256;DHT22;3161;48.794;9.784;2023-05-20T01:41:09;13.70;99.90
6256;DHT22;3161;48.794;9.784;2023-05-20T01:43:38;13.70;99.90
6256;DHT22;3161;48.794;9.784;2023-05-20T01:46:07;13.70;99.90
6256;DHT22;3161;48.794;9.784;2023-05-20T01:48:34;13.60;99.90
6256;DHT22;3161;48.794;9.784;2023-05-20T01:51:03;13.60;99.90
6256;DHT22;3161;48.794;9.784;2023-05-20T01:53:31;13.50;99.90
6256;DHT22;3161;48.794;9.784;2023-05-20T01:55:58;13.40;99.90
6256;DHT22;3161;48.794;9.784;2023-05-20T01:58:26;13.40;99.90
6256;DHT22;3161;48.794;9.784;2023-05-20T02:00:53;13.30;99.90
6256;DHT22;3161;48.794;9.784;2023-05-20T02:03:21;13.30;99.90
6256;DHT22;3161;48.794;9.784;2023-05-20T02:05:49;13.30;99.90
6256;DHT22;3161;48.794;9.784;2023-05-20T02:08:16;13.20;99.90
6256;DHT22;3161;48.794;9.784;2023-05-20T02:10:46;13.20;99.90
6256;DHT22;3161;48.794;9.784;2023-05-20T02:13:13;13.20;99.90
6256;DHT22;3161;48.794;9.784;2023-05-20T02:15:41;13.10;99.90
6256;DHT22;3161;48.794;9.784;2023-05-20T02:18:09;13.10;99.90
6256;DHT22;3161;48.794;9.784;2023-05-20T02:20:38;13.10;99.90
6256;DHT22;3161;48.794;9.784;2023-05-20T02:23:06;13.00;99.90
6256;DHT22;3161;48.794;9.784;2023-05-20T02:25:34;13.00;99.90
6256;DHT22;3161;48.794;9.784;2023-05-20T02:28:01;13.00;99.90
6256;DHT22;3161;48.794;9.784;2023-05-20T02:30:31;13.00;99.90
6256;DHT22;3161;48.794;9.784;2023-05-20T02:32:59;12.90;99.90
6256;DHT22;3161;48.794;9.784;2023-05-20T02:35:26;12.90;99.90
6256;DHT22;3161;48.794;9.784;2023-05-20T02:37:54;12.90;99.90
6256;DHT22;3161;48.794;9.784;2023-05-20T02:40:22;12.90;99.90
6256;DHT22;3161;48.794;9.784;2023-05-20T02:42:49;12.90;99.90
6256;DHT22;3161;48.794;9.784;2023-05-20T02:45:17;12.90;99.90
6256;DHT22;3161;48.794;9.784;2023-05-20T02:47:45;12.90;99.90
6256;DHT22;3161;48.794;9.784;2023-05-20T02:50:12;12.90;99.90
6256;DHT22;3161;48.794;9.784;2023-05-20T02:52:40;12.90;99.90
6256;DHT22;3161;48.794;9.784;2023-05-20T02:55:08;12.90;99.90
6256;DHT22;3161;48.794;9.784;2023-05-20T02:57:36;12.80;99.90
6256;DHT22;3161;48.794;9.784;2023-05-20T03:00:06;12.80;99.90
6256;DHT22;3161;48.794;9.784;2023-05-20T03:02:36;12.80;99.90
6256;DHT22;3161;48.794;9.784;2023-05-20T03:05:04;12.80;99.90
6256;DHT22;3161;48.794;9.784;2023-05-20T03:07:33;12.80;99.90
6256;DHT22;3161;48.794;9.784;2023-05-20T03:10:02;12.80;99.90
6256;DHT22;3161;48.794;9.784;2023-05-20T03:12:30;12.80;99.90
6256;DHT22;3161;48.794;9.784;2023-05-20T03:14:57;12.70;99.90
6256;DHT22;3161;48.794;9.784;2023-05-20T03:17:26;12.70;99.90
6256;DHT22;3161;48.794;9.784;2023-05-20T03:19:53;12.70;99.90
6256;DHT22;3161;48.794;9.784;2023-05-20T03:22:21;12.70;99.90
6256;DHT22;3161;48.794;9.784;2023-05-20T03:24:49;12.70;99.90
6256;DHT22;3161;48.794;9.784;2023-05-20T03:27:18;12.60;99.90
6256;DHT22;3161;48.794;9.784;2023-05-20T03:29:47;12.60;99.90
6256;DHT22;3161;48.794;9.784;2023-05-20T03:32:14;12.60;99.90
6256;DHT22;3161;48.794;9.784;2023-05-20T03:34:42;12.60;99.90
6256;DHT22;3161;48.794;9.784;2023-05-20T03:37:10;12.60;99.90
6256;DHT22;3161;48.794;9.784;2023-05-20T03:39:37;12.60;99.90
6256;DHT22;3161;48.794;9.784;2023-05-20T03:42:05;12.60;99.90
6256;DHT22;3161;48.794;9.784;2023-05-20T03:44:33;12.60;99.90
6256;DHT22;3161;48.794;9.784;2023-05-20T03:47:00;12.60;99.90
6256;DHT22;3161;48.794;9.784;2023-05-20T03:49:28;12.60;99.90
6256;DHT22;3161;48.794;9.784;2023-05-20T03:51:55;12.60;99.90
6256;DHT22;3161;48.794;9.784;2023-05-20T03:54:23;12.50;99.90
6256;DHT22;3161;48.794;9.784;2023-05-20T03:56:51;12.50;99.90
6256;DHT22;3161;48.794;9.784;2023-05-20T03:59:18;12.50;99.90
6256;DHT22;3161;48.794;9.784;2023-05-20T04:01:47;12.50;99.90
6256;DHT22;3161;48.794;9.784;2023-05-20T04:04:15;12.50;99.90
6256;DHT22;3161;48.794;9.784;2023-05-20T04:06:43;12.50;99.90
6256;DHT22;3161;48.794;9.784;2023-05-20T04:09:11;12.50;99.90
6256;DHT22;3161;48.794;9.784;2023-05-20T04:11:39;12.50;99.90
6256;DHT22;3161;48.794;9.784;2023-05-20T04:14:08;12.50;99.90
6256;DHT22;3161;48.794;9.784;2023-05-20T04:16:36;12.50;99.90
6256;DHT22;3161;48.794;9.784;2023-05-20T04:19:04;12.50;99.90
6256;DHT22;3161;48.794;9.784;2023-05-20T04:21:32;12.50;99.90
6256;DHT22;3161;48.794;9.784;2023-05-20T04:24:00;12.40;99.90
6256;DHT22;3161;48.794;9.784;2023-05-20T04:26:28;12.50;99.90
6256;DHT22;3161;48.794;9.784;2023-05-20T04:28:55;12.50;99.90
6256;DHT22;3161;48.794;9.784;2023-05-20T04:31:24;12.50;99.90
6256;DHT22;3161;48.794;9.784;2023-05-20T04:33:55;12.50;99.90
6256;DHT22;3161;48.794;9.784;2023-05-20T04:36:23;12.60;99.90
6256;DHT22;3161;48.794;9.784;2023-05-20T04:38:55;12.50;99.90
6256;DHT22;3161;48.794;9.784;2023-05-20T04:41:22;12.50;99.90
6256;DHT22;3161;48.794;9.784;2023-05-20T04:43:50;12.50;99.90
6256;DHT22;3161;48.794;9.784;2023-05-20T04:46:17;12.60;99.90
6256;DHT22;3161;48.794;9.784;2023-05-20T04:48:45;12.60;99.90
6256;DHT22;3161;48.794;9.784;2023-05-20T04:51:13;12.70;99.90
6256;DHT22;3161;48.794;9.784;2023-05-20T04:53:49;13.50;99.90
6256;DHT22;3161;48.794;9.784;2023-05-20T04:56:16;12.80;99.90
6256;DHT22;3161;48.794;9.784;2023-05-20T04:58:44;12.90;99.90
6256;DHT22;3161;48.794;9.784;2023-05-20T05:01:11;13.00;99.90
6256;DHT22;3161;48.794;9.784;2023-05-20T05:03:39;13.00;99.90
6256;DHT22;3161;48.794;9.784;2023-05-20T05:06:06;13.10;99.90
6256;DHT22;3161;48.794;9.784;2023-05-20T05:08:34;13.10;99.90
6256;DHT22;3161;48.794;9.784;2023-05-20T05:11:06;13.20;99.90
6256;DHT22;3161;48.794;9.784;2023-05-20T05:13:33;13.30;99.90
6256;DHT22;3161;48.794;9.784;2023-05-20T05:16:02;13.40;99.90
6256;DHT22;3161;48.794;9.784;2023-05-20T05:18:29;13.40;99.90
6256;DHT22;3161;48.794;9.784;2023-05-20T05:21:02;13.50;99.90
6256;DHT22;3161;48.794;9.784;2023-05-20T05:23:30;13.60;99.90
6256;DHT22;3161;48.794;9.784;2023-05-20T05:25:58;13.60;99.90
6256;DHT22;3161;48.794;9.784;2023-05-20T05:28:26;13.70;99.90
6256;DHT22;3161;48.794;9.784;2023-05-20T05:30:54;13.80;99.90
6256;DHT22;3161;48.794;9.784;2023-05-20T05:33:22;13.80;99.90
6256;DHT22;3161;48.794;9.784;2023-05-20T05:35:50;13.90;99.90
6256;DHT22;3161;48.794;9.784;2023-05-20T05:38:17;14.00;99.90
6256;DHT22;3161;48.794;9.784;2023-05-20T05:40:45;14.00;99.90
6256;DHT22;3161;48.794;9.784;2023-05-20T05:43:12;14.20;99.90
6256;DHT22;3161;48.794;9.784;2023-05-20T05:45:40;14.20;99.90
6256;DHT22;3161;48.794;9.784;2023-05-20T05:48:08;14.30;99.90
6256;DHT22;3161;48.794;9.784;2023-05-20T05:50:36;14.50;99.90
6256;DHT22;3161;48.794;9.784;2023-05-20T05:53:04;14.60;99.90
6256;DHT22;3161;48.794;9.784;2023-05-20T05:55:31;14.70;99.90
6256;DHT22;3161;48.794;9.784;2023-05-20T05:57:59;14.80;99.90
6256;DHT22;3161;48.794;9.784;2023-05-20T06:00:26;14.90;99.90
6256;DHT22;3161;48.794;9.784;2023-05-20T06:02:54;15.00;99.90
6256;DHT22;3161;48.794;9.784;2023-05-20T06:05:21;15.10;99.90
6256;DHT22;3161;48.794;9.784;2023-05-20T06:07:49;15.30;99.90
6256;DHT22;3161;48.794;9.784;2023-05-20T06:10:17;15.40;99.90
6256;DHT22;3161;48.794;9.784;2023-05-20T06:12:45;14.90;99.90
6256;DHT22;3161;48.794;9.784;2023-05-20T06:15:12;15.50;99.90
6256;DHT22;3161;48.794;9.784;2023-05-20T06:17:40;15.50;99.90
6256;DHT22;3161;48.794;9.784;2023-05-20T06:20:08;15.60;99.90
6256;DHT22;3161;48.794;9.784;2023-05-20T06:22:36;15.60;99.90
6256;DHT22;3161;48.794;9.784;2023-05-20T06:25:04;15.70;99.90
6256;DHT22;3161;48.794;9.784;2023-05-20T06:27:31;15.80;99.90
6256;DHT22;3161;48.794;9.784;2023-05-20T06:29:59;15.90;99.90
6256;DHT22;3161;48.794;9.784;2023-05-20T06:32:27;15.90;99.90
6256;DHT22;3161;48.794;9.784;2023-05-20T06:34:54;16.10;99.90
6256;DHT22;3161;48.794;9.784;2023-05-20T06:37:22;16.20;99.90
6256;DHT22;3161;48.794;9.784;2023-05-20T06:39:52;16.30;99.90
6256;DHT22;3161;48.794;9.784;2023-05-20T06:42:20;16.40;99.90
6256;DHT22;3161;48.794;9.784;2023-05-20T06:44:48;16.40;99.90
6256;DHT22;3161;48.794;9.784;2023-05-20T06:47:16;16.50;99.90
6256;DHT22;3161;48.794;9.784;2023-05-20T06:49:44;16.50;99.90
6256;DHT22;3161;48.794;9.784;2023-05-20T06:52:12;16.70;99.90
6256;DHT22;3161;48.794;9.784;2023-05-20T06:54:39;16.80;99.90
6256;DHT22;3161;48.794;9.784;2023-05-20T06:57:07;16.80;99.90
6256;DHT22;3161;48.794;9.784;2023-05-20T06:59:35;16.90;99.90
6256;DHT22;3161;48.794;9.784;2023-05-20T07:02:04;16.90;99.90
6256;DHT22;3161;48.794;9.784;2023-05-20T07:04:31;17.00;99.90
6256;DHT22;3161;48.794;9.784;2023-05-20T07:06:59;17.10;99.90
6256;DHT22;3161;48.794;9.784;2023-05-20T07:09:27;17.10;99.90
6256;DHT22;3161;48.794;9.784;2023-05-20T07:11:55;17.10;99.90
6256;DHT22;3161;48.794;9.784;2023-05-20T07:14:22;17.10;99.90
6256;DHT22;3161;48.794;9.784;2023-05-20T07:16:50;17.20;99.90
6256;DHT22;3161;48.794;9.784;2023-05-20T07:19:17;17.20;99.90
6256;DHT22;3161;48.794;9.784;2023-05-20T07:21:45;17.20;99.90
6256;DHT22;3161;48.794;9.784;2023-05-20T07:24:15;17.30;99.90
6256;DHT22;3161;48.794;9.784;2023-05-20T07:26:43;17.40;99.90
6256;DHT22;3161;48.794;9.784;2023-05-20T07:29:11;17.60;99.90
6256;DHT22;3161;48.794;9.784;2023-05-20T07:31:38;17.70;99.90
6256;DHT22;3161;48.794;9.784;2023-05-20T07:34:06;17.80;99.90
6256;DHT22;3161;48.794;9.784;2023-05-20T07:36:34;17.90;99.90
6256;DHT22;3161;48.794;9.784;2023-05-20T07:39:03;18.10;99.90
6256;DHT22;3161;48.794;9.784;2023-05-20T07:41:31;18.30;99.90
6256;DHT22;3161;48.794;9.784;2023-05-20T07:44:00;18.50;99.90
6256;DHT22;3161;48.794;9.784;2023-05-20T07:46:28;18.60;99.90
6256;DHT22;3161;48.794;9.784;2023-05-20T07:48:56;18.70;99.90
6256;DHT22;3161;48.794;9.784;2023-05-20T07:51:23;18.80;99.90
6256;DHT22;3161;48.794;9.784;2023-05-20T07:53:51;18.70;99.90
6256;DHT22;3161;48.794;9.784;2023-05-20T07:56:19;18.80;99.90
6256;DHT22;3161;48.794;9.784;2023-05-20T07:59:06;18.90;99.90
6256;DHT22;3161;48.794;9.784;2023-05-20T08:01:34;19.10;99.90
6256;DHT22;3161;48.794;9.784;2023-05-20T08:04:02;19.20;99.90
6256;DHT22;3161;48.794;9.784;2023-05-20T08:06:29;19.50;99.90
6256;DHT22;3161;48.794;9.784;2023-05-20T08:08:58;19.50;99.90
6256;DHT22;3161;48.794;9.784;2023-05-20T08:11:26;19.60;99.90
6256;DHT22;3161;48.794;9.784;2023-05-20T08:13:53;19.70;99.90
6256;DHT22;3161;48.794;9.784;2023-05-20T08:16:21;19.70;99.90
6256;DHT22;3161;48.794;9.784;2023-05-20T08:18:48;19.70;99.90
6256;DHT22;3161;48.794;9.784;2023-05-20T08:21:16;19.70;99.90
6256;DHT22;3161;48.794;9.784;2023-05-20T08:23:44;19.60;99.90
6256;DHT22;3161;48.794;9.784;2023-05-20T08:26:11;19.50;99.90
6256;DHT22;3161;48.794;9.784;2023-05-20T08:28:39;19.50;99.90
6256;DHT22;3161;48.794;9.784;2023-05-20T08:31:06;19.50;99.90
6256;DHT22;3161;48.794;9.784;2023-05-20T08:33:34;19.50;99.90
6256;DHT22;3161;48.794;9.784;2023-05-20T08:36:02;19.50;99.90
6256;DHT22;3161;48.794;9.784;2023-05-20T08:38:29;19.50;99.90
6256;DHT22;3161;48.794;9.784;2023-05-20T08:40:57;19.60;99.90
6256;DHT22;3161;48.794;9.784;2023-05-20T08:43:25;19.70;99.90
6256;DHT22;3161;48.794;9.784;2023-05-20T08:45:53;19.80;99.90
6256;DHT22;3161;48.794;9.784;2023-05-20T08:48:24;19.90;99.90
6256;DHT22;3161;48.794;9.784;2023-05-20T08:50:52;20.10;99.90
6256;DHT22;3161;48.794;9.784;2023-05-20T08:53:21;20.30;99.90
6256;DHT22;3161;48.794;9.784;2023-05-20T08:55:58;20.50;99.90
6256;DHT22;3161;48.794;9.784;2023-05-20T08:58:23;20.70;99.90
6256;DHT22;3161;48.794;9.784;2023-05-20T09:00:51;20.80;99.90
6256;DHT22;3161;48.794;9.784;2023-05-20T09:03:19;20.80;99.90
6256;DHT22;3161;48.794;9.784;2023-05-20T09:05:47;20.80;99.90
6256;DHT22;3161;48.794;9.784;2023-05-20T09:08:15;20.80;99.90
6256;DHT22;3161;48.794;9.784;2023-05-20T09:10:42;20.70;99.90
6256;DHT22;3161;48.794;9.784;2023-05-20T09:13:10;20.80;99.90
6256;DHT22;3161;48.794;9.784;2023-05-20T09:15:38;20.80;99.90
6256;DHT22;3161;48.794;9.784;2023-05-20T09:18:06;20.80;99.90
6256;DHT22;3161;48.794;9.784;2023-05-20T09:20:36;20.90;99.90
6256;DHT22;3161;48.794;9.784;2023-05-20T09:23:05;21.00;99.90
6256;DHT22;3161;48.794;9.784;2023-05-20T09:25:34;21.20;99.90
6256;DHT22;3161;48.794;9.784;2023-05-20T09:28:08;21.30;99.90
6256;DHT22;3161;48.794;9.784;2023-05-20T09:30:37;21.30;99.90
6256;DHT22;3161;48.794;9.784;2023-05-20T09:33:05;21.50;99.90
6256;DHT22;3161;48.794;9.784;2023-05-20T09:35:35;21.50;99.90
6256;DHT22;3161;48.794;9.784;2023-05-20T09:38:05;21.60;99.90
6256;DHT22;3161;48.794;9.784;2023-05-20T09:40:36;21.60;99.90
6256;DHT22;3161;48.794;9.784;2023-05-20T09:43:06;21.60;99.90
6256;DHT22;3161;48.794;9.784;2023-05-20T09:45:34;21.70;99.90
6256;DHT22;3161;48.794;9.784;2023-05-20T09:48:02;21.80;99.90
6256;DHT22;3161;48.794;9.784;2023-05-20T09:50:31;21.90;99.90
6256;DHT22;3161;48.794;9.784;2023-05-20T09:53:01;22.00;99.90
6256;DHT22;3161;48.794;9.784;2023-05-20T09:55:29;22.00;99.90
6256;DHT22;3161;48.794;9.784;2023-05-20T09:58:03;22.20;99.90
6256;DHT22;3161;48.794;9.784;2023-05-20T10:00:28;22.30;99.90
6256;DHT22;3161;48.794;9.784;2023-05-20T10:02:56;22.40;99.90
6256;DHT22;3161;48.794;9.784;2023-05-20T10:05:29;22.50;99.90
6256;DHT22;3161;48.794;9.784;2023-05-20T10:11:24;22.70;99.90
6256;DHT22;3161;48.794;9.784;2023-05-20T10:14:05;22.80;99.90
6256;DHT22;3161;48.794;9.784;2023-05-20T10:19:11;22.70;99.90
6256;DHT22;3161;48.794;9.784;2023-05-20T10:21:37;22.70;99.90
6256;DHT22;3161;48.794;9.784;2023-05-20T10:24:06;22.70;99.90
6256;DHT22;3161;48.794;9.784;2023-05-20T10:26:37;22.80;99.90
6256;DHT22;3161;48.794;9.784;2023-05-20T10:29:16;22.90;99.90
6256;DHT22;3161;48.794;9.784;2023-05-20T10:31:47;23.00;99.90
6256;DHT22;3161;48.794;9.784;2023-05-20T10:34:14;23.20;99.90
6256;DHT22;3161;48.794;9.784;2023-05-20T10:39:28;23.40;99.90
6256;DHT22;3161;48.794;9.784;2023-05-20T10:42:08;23.50;99.90
6256;DHT22;3161;48.794;9.784;2023-05-20T10:44:43;23.70;99.90
6256;DHT22;3161;48.794;9.784;2023-05-20T10:47:12;23.60;99.90
6256;DHT22;3161;48.794;9.784;2023-05-20T10:49:44;23.50;99.90
6256;DHT22;3161;48.794;9.784;2023-05-20T10:52:10;23.60;99.90
6256;DHT22;3161;48.794;9.784;2023-05-20T10:54:46;23.70;99.90
6256;DHT22;3161;48.794;9.784;2023-05-20T10:57:14;23.80;99.90
6256;DHT22;3161;48.794;9.784;2023-05-20T10:59:41;23.80;99.90
6256;DHT22;3161;48.794;9.784;2023-05-20T11:02:16;23.80;99.90
6256;DHT22;3161;48.794;9.784;2023-05-20T11:04:45;23.70;99.70
6256;DHT22;3161;48.794;9.784;2023-05-20T11:07:22;23.70;99.10
6256;DHT22;3161;48.794;9.784;2023-05-20T11:09:48;23.70;99.80
6256;DHT22;3161;48.794;9.784;2023-05-20T11:12:12;23.60;99.50
6256;DHT22;3161;48.794;9.784;2023-05-20T11:14:40;23.60;99.60
6256;DHT22;3161;48.794;9.784;2023-05-20T11:17:08;23.60;99.50
6256;DHT22;3161;48.794;9.784;2023-05-20T11:19:37;23.60;98.90
6256;DHT22;3161;48.794;9.784;2023-05-20T11:22:06;23.70;99.40
6256;DHT22;3161;48.794;9.784;2023-05-20T11:24:34;23.60;99.40
6256;DHT22;3161;48.794;9.784;2023-05-20T11:27:02;23.70;99.40
6256;DHT22;3161;48.794;9.784;2023-05-20T11:29:30;23.70;99.60
6256;DHT22;3161;48.794;9.784;2023-05-20T11:32:00;23.90;99.60
6256;DHT22;3161;48.794;9.784;2023-05-20T11:34:35;24.00;98.80
6256;DHT22;3161;48.794;9.784;2023-05-20T11:37:08;24.10;98.20
6256;DHT22;3161;48.794;9.784;2023-05-20T11:39:37;24.10;98.10
6256;DHT22;3161;48.794;9.784;2023-05-20T11:42:04;24.10;97.60
6256;DHT22;3161;48.794;9.784;2023-05-20T11:44:51;24.20;98.10
6256;DHT22;3161;48.794;9.784;2023-05-20T11:47:23;24.30;97.80
6256;DHT22;3161;48.794;9.784;2023-05-20T11:49:49;24.40;97.90
6256;DHT22;3161;48.794;9.784;2023-05-20T11:52:18;24.50;96.10
6256;DHT22;3161;48.794;9.784;2023-05-20T11:54:51;24.40;96.60
6256;DHT22;3161;48.794;9.784;2023-05-20T11:57:19;24.50;96.20
6256;DHT22;3161;48.794;9.784;2023-05-20T11:59:48;24.40;97.10
6256;DHT22;3161;48.794;9.784;2023-05-20T12:02:16;24.40;96.60
6256;DHT22;3161;48.794;9.784;2023-05-20T12:04:43;24.40;95.10
6256;DHT22;3161;48.794;9.784;2023-05-20T12:07:11;24.20;95.30
6256;DHT22;3161;48.794;9.784;2023-05-20T12:09:40;24.20;95.10
6256;DHT22;3161;48.794;9.784;2023-05-20T12:12:08;24.10;95.40
6256;DHT22;3161;48.794;9.784;2023-05-20T12:14:37;24.10;96.10
6256;DHT22;3161;48.794;9.784;2023-05-20T12:17:05;24.00;95.20
6256;DHT22;3161;48.794;9.784;2023-05-20T12:19:32;23.90;95.50
6256;DHT22;3161;48.794;9.784;2023-05-20T12:22:00;24.00;96.40
6256;DHT22;3161;48.794;9.784;2023-05-20T12:24:28;24.20;95.80
6256;DHT22;3161;48.794;9.784;2023-05-20T12:26:56;24.30;95.80
6256;DHT22;3161;48.794;9.784;2023-05-20T12:29:23;24.30;94.80
6256;DHT22;3161;48.794;9.784;2023-05-20T12:31:51;24.10;94.80
6256;DHT22;3161;48.794;9.784;2023-05-20T12:34:18;24.00;95.80
6256;DHT22;3161;48.794;9.784;2023-05-20T12:36:46;24.00;95.70
6256;DHT22;3161;48.794;9.784;2023-05-20T12:39:14;24.00;95.50
6256;DHT22;3161;48.794;9.784;2023-05-20T12:41:43;24.00;94.90
6256;DHT22;3161;48.794;9.784;2023-05-20T12:44:10;24.00;94.90
6256;DHT22;3161;48.794;9.784;2023-05-20T12:46:38;24.00;93.80
6256;DHT22;3161;48.794;9.784;2023-05-20T12:49:05;24.10;94.30
6256;DHT22;3161;48.794;9.784;2023-05-20T12:51:33;24.30;93.90
6256;DHT22;3161;48.794;9.784;2023-05-20T12:54:00;24.60;94.70
6256;DHT22;3161;48.794;9.784;2023-05-20T12:56:28;24.80;94.30
6256;DHT22;3161;48.794;9.784;2023-05-20T12:58:56;25.00;94.00
6256;DHT22;3161;48.794;9.784;2023-05-20T13:01:23;25.10;93.20
6256;DHT22;3161;48.794;9.784;2023-05-20T13:03:51;25.30;91.80
6256;DHT22;3161;48.794;9.784;2023-05-20T13:06:19;25.40;90.20
6256;DHT22;3161;48.794;9.784;2023-05-20T13:08:46;25.40;89.70
6256;DHT22;3161;48.794;9.784;2023-05-20T13:11:14;25.50;90.10
6256;DHT22;3161;48.794;9.784;2023-05-20T13:13:41;25.50;89.00
6256;DHT22;3161;48.794;9.784;2023-05-20T13:16:09;25.50;89.90
6256;DHT22;3161;48.794;9.784;2023-05-20T13:18:37;25.50;89.70
6256;DHT22;3161;48.794;9.784;2023-05-20T13:21:05;25.50;90.20
6256;DHT22;3161;48.794;9.784;2023-05-20T13:23:32;25.50;89.90
6256;DHT22;3161;48.794;9.784;2023-05-20T13:26:00;25.50;90.10
6256;DHT22;3161;48.794;9.784;2023-05-20T13:28:28;25.40;90.20
6256;DHT22;3161;48.794;9.784;2023-05-20T13:30:55;25.60;90.70
6256;DHT22;3161;48.794;9.784;2023-05-20T13:33:23;25.90;91.20
6256;DHT22;3161;48.794;9.784;2023-05-20T13:35:50;26.20;90.30
6256;DHT22;3161;48.794;9.784;2023-05-20T13:38:18;26.50;88.80
6256;DHT22;3161;48.794;9.784;2023-05-20T13:40:45;26.70;88.60
6256;DHT22;3161;48.794;9.784;2023-05-20T13:43:14;27.00;85.00
6256;DHT22;3161;48.794;9.784;2023-05-20T13:45:42;27.30;83.10
6256;DHT22;3161;48.794;9.784;2023-05-20T13:48:10;27.70;83.10
6256;DHT22;3161;48.794;9.784;2023-05-20T13:50:37;28.00;82.20
6256;DHT22;3161;48.794;9.784;2023-05-20T13:53:05;28.10;81.70
6256;DHT22;3161;48.794;9.784;2023-05-20T13:55:34;27.80;80.40
6256;DHT22;3161;48.794;9.784;2023-05-20T13:58:02;27.50;79.80
6256;DHT22;3161;48.794;9.784;2023-05-20T14:00:31;27.10;81.00
6256;DHT22;3161;48.794;9.784;2023-05-20T14:02:59;26.80;82.70
6256;DHT22;3161;48.794;9.784;2023-05-20T14:05:27;26.40;82.50
6256;DHT22;3161;48.794;9.784;2023-05-20T14:07:54;26.20;83.80
6256;DHT22;3161;48.794;9.784;2023-05-20T14:10:22;26.00;84.60
6256;DHT22;3161;48.794;9.784;2023-05-20T14:12:50;25.90;86.00
6256;DHT22;3161;48.794;9.784;2023-05-20T14:15:18;25.80;85.70
6256;DHT22;3161;48.794;9.784;2023-05-20T14:17:47;25.80;83.80
6256;DHT22;3161;48.794;9.784;2023-05-20T14:20:15;25.80;84.40
6256;DHT22;3161;48.794;9.784;2023-05-20T14:22:43;25.90;86.40
6256;DHT22;3161;48.794;9.784;2023-05-20T14:25:10;25.80;85.70
6256;DHT22;3161;48.794;9.784;2023-05-20T14:27:38;25.80;85.10
6256;DHT22;3161;48.794;9.784;2023-05-20T14:30:06;25.80;84.60
6256;DHT22;3161;48.794;9.784;2023-05-20T14:32:34;25.70;84.70
6256;DHT22;3161;48.794;9.784;2023-05-20T14:35:02;25.70;85.30
6256;DHT22;3161;48.794;9.784;2023-05-20T14:37:30;25.60;87.00
6256;DHT22;3161;48.794;9.784;2023-05-20T14:39:57;25.60;86.30
6256;DHT22;3161;48.794;9.784;2023-05-20T14:42:25;25.50;85.70
6256;DHT22;3161;48.794;9.784;2023-05-20T14:44:53;25.40;86.00
6256;DHT22;3161;48.794;9.784;2023-05-20T14:47:21;25.40;87.90
6256;DHT22;3161;48.794;9.784;2023-05-20T14:49:48;25.40;87.50
6256;DHT22;3161;48.794;9.784;2023-05-20T14:52:17;25.40;89.10
6256;DHT22;3161;48.794;9.784;2023-05-20T14:54:44;25.40;87.90
6256;DHT22;3161;48.794;9.784;2023-05-20T14:57:12;25.40;87.70
6256;DHT22;3161;48.794;9.784;2023-05-20T14:59:41;25.30;88.20
6256;DHT22;3161;48.794;9.784;2023-05-20T15:02:13;25.30;88.50
6256;DHT22;3161;48.794;9.784;2023-05-20T15:04:42;25.20;87.20
6256;DHT22;3161;48.794;9.784;2023-05-20T15:07:11;25.20;89.20
6256;DHT22;3161;48.794;9.784;2023-05-20T15:09:39;25.20;88.30
6256;DHT22;3161;48.794;9.784;2023-05-20T15:12:08;25.20;87.50
6256;DHT22;3161;48.794;9.784;2023-05-20T15:14:36;25.20;88.20
6256;DHT22;3161;48.794;9.784;2023-05-20T15:17:04;25.10;88.20
6256;DHT22;3161;48.794;9.784;2023-05-20T15:19:31;25.10;89.10
6256;DHT22;3161;48.794;9.784;2023-05-20T15:21:59;25.20;89.30
6256;DHT22;3161;48.794;9.784;2023-05-20T15:24:27;25.20;86.80
6256;DHT22;3161;48.794;9.784;2023-05-20T15:26:54;25.10;86.90
6256;DHT22;3161;48.794;9.784;2023-05-20T15:29:22;25.20;87.50
6256;DHT22;3161;48.794;9.784;2023-05-20T15:31:49;25.20;85.50
6256;DHT22;3161;48.794;9.784;2023-05-20T15:34:17;25.20;84.60
6256;DHT22;3161;48.794;9.784;2023-05-20T15:36:45;25.10;85.20
6256;DHT22;3161;48.794;9.784;2023-05-20T15:39:12;25.10;84.80
6256;DHT22;3161;48.794;9.784;2023-05-20T15:41:40;25.00;83.50
6256;DHT22;3161;48.794;9.784;2023-05-20T15:44:08;25.00;84.40
6256;DHT22;3161;48.794;9.784;2023-05-20T15:46:37;25.00;84.50
6256;DHT22;3161;48.794;9.784;2023-05-20T15:49:05;25.00;83.40
6256;DHT22;3161;48.794;9.784;2023-05-20T15:51:32;24.90;84.80
6256;DHT22;3161;48.794;9.784;2023-05-20T15:54:00;24.90;85.10
6256;DHT22;3161;48.794;9.784;2023-05-20T15:56:29;24.90;82.50
6256;DHT22;3161;48.794;9.784;2023-05-20T15:58:57;24.80;82.90
6256;DHT22;3161;48.794;9.784;2023-05-20T16:01:24;24.80;82.60
6256;DHT22;3161;48.794;9.784;2023-05-20T16:03:53;24.80;83.20
6256;DHT22;3161;48.794;9.784;2023-05-20T16:06:21;24.80;85.20
6256;DHT22;3161;48.794;9.784;2023-05-20T16:08:48;24.80;84.20
6256;DHT22;3161;48.794;9.784;2023-05-20T16:11:16;24.80;84.60
6256;DHT22;3161;48.794;9.784;2023-05-20T16:13:43;24.80;85.40
6256;DHT22;3161;48.794;9.784;2023-05-20T16:16:11;24.80;85.30
6256;DHT22;3161;48.794;9.784;2023-05-20T16:18:38;24.70;85.60